sensor_id;sensor_type;location;lat;lon;timestamp;pressure;altitude;pressure_sealevel;temperature;humidity
11971;BME280;6045;42.682;23.294;2023-04-16T00:00:57;94101.19;;;14.05;56.67
11971;BME280;6045;42.682;23.294;2023-04-16T00:03:24;94096.88;;;14.04;56.83
11971;BME280;6045;42.682;23.294;2023-04-16T00:05:51;94103.06;;;14.05;56.47
11971;BME280;6045;42.682;23.294;2023-04-16T00:08:20;94100.94;;;14.07;56.33
11971;BME280;6045;42.682;23.294;2023-04-16T00:10:48;94096.09;;;14.09;56.63
11971;BME280;6045;42.682;23.294;2023-04-16T00:13:16;94097.97;;;14.03;56.72
11971;BME280;6045;42.682;23.294;2023-04-16T00:15:43;94107.84;;;13.88;54.65
11971;BME280;6045;42.682;23.294;2023-04-16T00:18:10;94097.78;;;13.58;53.29
11971;BME280;6045;42.682;23.294;2023-04-16T00:20:37;94097.22;;;13.09;53.39
11971;BME280;6045;42.682;23.294;2023-04-16T00:23:04;94104.44;;;13.09;54.12
11971;BME280;6045;42.682;23.294;2023-04-16T00:25:30;94101.56;;;13.20;54.10
11971;BME280;6045;42.682;23.294;2023-04-16T00:27:57;94103.75;;;13.23;53.45
11971;BME280;6045;42.682;23.294;2023-04-16T00:30:25;94107.13;;;13.09;53.54
11971;BME280;6045;42.682;23.294;2023-04-16T00:32:52;94101.50;;;13.10;53.66
11971;BME280;6045;42.682;23.294;2023-04-16T00:35:19;94096.94;;;13.11;53.66
11971;BME280;6045;42.682;23.294;2023-04-16T00:37:46;94107.97;;;13.14;54.06
11971;BME280;6045;42.682;23.294;2023-04-16T00:40:12;94099.66;;;13.16;53.83
11971;BME280;6045;42.682;23.294;2023-04-16T00:42:39;94109.88;;;13.19;53.97
11971;BME280;6045;42.682;23.294;2023-04-16T00:45:07;94103.94;;;13.17;54.31
11971;BME280;6045;42.682;23.294;2023-04-16T00:47:35;94098.84;;;13.15;54.85
11971;BME280;6045;42.682;23.294;2023-04-16T00:50:02;94095.63;;;13.13;54.71
11971;BME280;6045;42.682;23.294;2023-04-16T00:52:30;94099.34;;;13.12;54.80
11971;BME280;6045;42.682;23.294;2023-04-16T00:54:58;94102.56;;;13.09;54.82
11971;BME280;6045;42.682;23.294;2023-04-16T00:57:25;94104.38;;;13.03;54.82
11971;BME280;6045;42.682;23.294;2023-04-16T00:59:53;94098.16;;;12.98;54.96
11971;BME280;6045;42.682;23.294;2023-04-16T01:02:20;94103.53;;;12.98;55.15
11971;BME280;6045;42.682;23.294;2023-04-16T01:04:48;94093.88;;;12.97;54.89
11971;BME280;6045;42.682;23.294;2023-04-16T01:07:16;94095.47;;;12.93;54.68
11971;BME280;6045;42.682;23.294;2023-04-16T01:09:43;94094.34;;;12.89;54.97
11971;BME280;6045;42.682;23.294;2023-04-16T01:12:09;94096.97;;;12.84;55.39
11971;BME280;6045;42.682;23.294;2023-04-16T01:14:36;94096.91;;;12.74;55.29
11971;BME280;6045;42.682;23.294;2023-04-16T01:17:03;94100.00;;;12.61;55.30
11971;BME280;6045;42.682;23.294;2023-04-16T01:19:30;94094.34;;;12.57;55.16
11971;BME280;6045;42.682;23.294;2023-04-16T01:21:58;94096.16;;;12.52;54.36
11971;BME280;6045;42.682;23.294;2023-04-16T01:24:25;94095.06;;;12.48;54.16
11971;BME280;6045;42.682;23.294;2023-04-16T01:26:51;94090.75;;;12.47;54.20
11971;BME280;6045;42.682;23.294;2023-04-16T01:29:18;94095.13;;;12.53;54.07
11971;BME280;6045;42.682;23.294;2023-04-16T01:31:45;94095.63;;;12.50;55.30
11971;BME280;6045;42.682;23.294;2023-04-16T01:34:12;94094.00;;;12.49;55.29
11971;BME280;6045;42.682;23.294;2023-04-16T01:36:38;94085.72;;;12.50;54.67
11971;BME280;6045;42.682;23.294;2023-04-16T01:39:07;94088.38;;;12.50;54.79
11971;BME280;6045;42.682;23.294;2023-04-16T01:41:35;94085.72;;;12.50;53.77
11971;BME280;6045;42.682;23.294;2023-04-16T01:44:03;94086.25;;;12.52;54.58
11971;BME280;6045;42.682;23.294;2023-04-16T01:46:31;94076.34;;;12.53;54.83
11971;BME280;6045;42.682;23.294;2023-04-16T01:48:58;94072.84;;;12.52;54.77
11971;BME280;6045;42.682;23.294;2023-04-16T01:51:26;94075.00;;;12.50;54.47
11971;BME280;6045;42.682;23.294;2023-04-16T01:53:53;94074.19;;;12.50;54.95
11971;BME280;6045;42.682;23.294;2023-04-16T01:56:22;94066.41;;;12.48;54.93
11971;BME280;6045;42.682;23.294;2023-04-16T01:58:48;94065.03;;;12.46;55.24
11971;BME280;6045;42.682;23.294;2023-04-16T02:01:15;94069.31;;;12.47;55.08
11971;BME280;6045;42.682;23.294;2023-04-16T02:03:42;94078.13;;;12.42;55.19
11971;BME280;6045;42.682;23.294;2023-04-16T02:06:09;94067.66;;;12.41;55.00
11971;BME280;6045;42.682;23.294;2023-04-16T02:08:35;94075.69;;;12.41;54.96
11971;BME280;6045;42.682;23.294;2023-04-16T02:11:02;94074.06;;;12.40;55.60
11971;BME280;6045;42.682;23.294;2023-04-16T02:13:30;94074.03;;;12.34;55.84
11971;BME280;6045;42.682;23.294;2023-04-16T02:15:57;94071.88;;;12.31;55.46
11971;BME280;6045;42.682;23.294;2023-04-16T02:18:24;94072.66;;;12.32;55.90
11971;BME280;6045;42.682;23.294;2023-04-16T02:20:50;94070.25;;;12.30;55.89
11971;BME280;6045;42.682;23.294;2023-04-16T02:23:17;94074.78;;;12.30;55.62
11971;BME280;6045;42.682;23.294;2023-04-16T02:25:45;94065.31;;;12.22;55.43
11971;BME280;6045;42.682;23.294;2023-04-16T02:28:13;94066.41;;;12.21;55.33
11971;BME280;6045;42.682;23.294;2023-04-16T02:30:42;94071.44;;;12.18;55.15
11971;BME280;6045;42.682;23.294;2023-04-16T02:33:11;94072.25;;;12.18;55.19
11971;BME280;6045;42.682;23.294;2023-04-16T02:35:38;94066.09;;;12.18;55.31
11971;BME280;6045;42.682;23.294;2023-04-16T02:38:06;94061.53;;;12.18;55.08
11971;BME280;6045;42.682;23.294;2023-04-16T02:40:33;94066.34;;;12.16;54.78
11971;BME280;6045;42.682;23.294;2023-04-16T02:43:00;94068.47;;;12.14;54.78
11971;BME280;6045;42.682;23.294;2023-04-16T02:45:26;94062.63;;;12.17;55.20
11971;BME280;6045;42.682;23.294;2023-04-16T02:47:57;94061.00;;;12.16;55.65
11971;BME280;6045;42.682;23.294;2023-04-16T02:50:24;94053.00;;;12.21;55.70
11971;BME280;6045;42.682;23.294;2023-04-16T02:52:51;94056.78;;;12.25;56.08
11971;BME280;6045;42.682;23.294;2023-04-16T02:55:18;94055.22;;;12.29;56.41
11971;BME280;6045;42.682;23.294;2023-04-16T02:57:44;94052.03;;;12.32;56.39
11971;BME280;6045;42.682;23.294;2023-04-16T03:00:12;94047.22;;;12.34;56.77
11971;BME280;6045;42.682;23.294;2023-04-16T03:02:38;94045.84;;;12.32;57.44
11971;BME280;6045;42.682;23.294;2023-04-16T03:05:08;94054.47;;;12.34;56.75
11971;BME280;6045;42.682;23.294;2023-04-16T03:07:36;94056.41;;;12.39;57.03
11971;BME280;6045;42.682;23.294;2023-04-16T03:10:04;94051.59;;;12.41;57.02
11971;BME280;6045;42.682;23.294;2023-04-16T03:12:31;94053.94;;;12.37;57.23
11971;BME280;6045;42.682;23.294;2023-04-16T03:14:58;94059.03;;;12.33;57.57
11971;BME280;6045;42.682;23.294;2023-04-16T03:17:24;94067.00;;;12.28;58.13
11971;BME280;6045;42.682;23.294;2023-04-16T03:19:51;94062.16;;;12.25;57.73
11971;BME280;6045;42.682;23.294;2023-04-16T03:22:19;94066.47;;;12.26;57.92
11971;BME280;6045;42.682;23.294;2023-04-16T03:24:46;94062.16;;;12.25;57.89
11971;BME280;6045;42.682;23.294;2023-04-16T03:27:13;94062.66;;;12.22;58.46
11971;BME280;6045;42.682;23.294;2023-04-16T03:29:40;94065.91;;;12.24;58.32
11971;BME280;6045;42.682;23.294;2023-04-16T03:32:06;94065.09;;;12.24;58.72
11971;BME280;6045;42.682;23.294;2023-04-16T03:34:33;94072.56;;;12.22;58.25
11971;BME280;6045;42.682;23.294;2023-04-16T03:37:01;94072.47;;;12.12;57.48
11971;BME280;6045;42.682;23.294;2023-04-16T03:39:31;94071.72;;;12.16;57.79
11971;BME280;6045;42.682;23.294;2023-04-16T03:41:58;94080.78;;;12.10;57.46
11971;BME280;6045;42.682;23.294;2023-04-16T03:44:24;94076.94;;;12.06;57.82
11971;BME280;6045;42.682;23.294;2023-04-16T03:46:51;94076.72;;;12.08;57.84
11971;BME280;6045;42.682;23.294;2023-04-16T03:49:18;94078.31;;;12.09;58.16
11971;BME280;6045;42.682;23.294;2023-04-16T03:51:44;94080.44;;;12.07;58.32
11971;BME280;6045;42.682;23.294;2023-04-16T03:54:11;94080.66;;;12.00;58.30
11971;BME280;6045;42.682;23.294;2023-04-16T03:56:40;94072.81;;;11.94;58.20
11971;BME280;6045;42.682;23.294;2023-04-16T03:59:07;94076.81;;;11.91;59.14
11971;BME280;6045;42.682;23.294;2023-04-16T04:01:34;94076.28;;;11.94;58.84
11971;BME280;6045;42.682;23.294;2023-04-16T04:04:00;94080.09;;;11.98;59.10
11971;BME280;6045;42.682;23.294;2023-04-16T04:06:27;94082.25;;;12.01;59.15
11971;BME280;6045;42.682;23.294;2023-04-16T04:08:54;94087.38;;;12.03;59.34
11971;BME280;6045;42.682;23.294;2023-04-16T04:11:21;94088.41;;;12.02;59.34
11971;BME280;6045;42.682;23.294;2023-04-16T04:13:49;94080.44;;;12.07;59.40
11971;BME280;6045;42.682;23.294;2023-04-16T04:16:15;94089.78;;;12.04;59.33
11971;BME280;6045;42.682;23.294;2023-04-16T04:18:42;94097.34;;;12.07;58.78
11971;BME280;6045;42.682;23.294;2023-04-16T04:21:09;94091.66;;;12.04;58.78
11971;BME280;6045;42.682;23.294;2023-04-16T04:23:36;94101.38;;;12.10;58.68
11971;BME280;6045;42.682;23.294;2023-04-16T04:26:02;94102.50;;;12.14;58.04
11971;BME280;6045;42.682;23.294;2023-04-16T04:28:31;94103.81;;;12.11;58.14
11971;BME280;6045;42.682;23.294;2023-04-16T04:31:00;94100.50;;;12.04;58.28
11971;BME280;6045;42.682;23.294;2023-04-16T04:33:27;94097.53;;;12.01;58.76
11971;BME280;6045;42.682;23.294;2023-04-16T04:35:54;94106.41;;;12.06;58.51
11971;BME280;6045;42.682;23.294;2023-04-16T04:38:21;94107.56;;;12.10;58.59
11971;BME280;6045;42.682;23.294;2023-04-16T04:40:49;94098.22;;;12.18;58.15
11971;BME280;6045;42.682;23.294;2023-04-16T04:43:16;94112.75;;;12.22;57.85
11971;BME280;6045;42.682;23.294;2023-04-16T04:45:43;94106.34;;;12.23;57.99
11971;BME280;6045;42.682;23.294;2023-04-16T04:48:11;94103.66;;;12.23;58.20
11971;BME280;6045;42.682;23.294;2023-04-16T04:50:38;94111.47;;;12.29;57.99
11971;BME280;6045;42.682;23.294;2023-04-16T04:53:05;94115.84;;;12.35;57.56
11971;BME280;6045;42.682;23.294;2023-04-16T04:55:35;94121.81;;;12.43;57.15
11971;BME280;6045;42.682;23.294;2023-04-16T04:58:05;94109.78;;;12.45;56.94
11971;BME280;6045;42.682;23.294;2023-04-16T05:00:33;94119.19;;;12.48;56.46
11971;BME280;6045;42.682;23.294;2023-04-16T05:03:01;94111.97;;;12.48;56.33
11971;BME280;6045;42.682;23.294;2023-04-16T05:05:29;94109.47;;;12.42;56.93
11971;BME280;6045;42.682;23.294;2023-04-16T05:07:56;94121.31;;;12.46;56.58
11971;BME280;6045;42.682;23.294;2023-04-16T05:10:23;94120.00;;;12.48;56.67
11971;BME280;6045;42.682;23.294;2023-04-16T05:12:49;94121.91;;;12.53;59.44
11971;BME280;6045;42.682;23.294;2023-04-16T05:15:16;94112.81;;;12.54;59.62
11971;BME280;6045;42.682;23.294;2023-04-16T05:17:43;94109.13;;;12.65;57.86
11971;BME280;6045;42.682;23.294;2023-04-16T05:20:10;94107.03;;;12.67;58.25
11971;BME280;6045;42.682;23.294;2023-04-16T05:22:38;94118.88;;;12.71;57.50
11971;BME280;6045;42.682;23.294;2023-04-16T05:25:06;94114.59;;;12.75;55.06
11971;BME280;6045;42.682;23.294;2023-04-16T05:27:32;94113.84;;;12.79;54.83
11971;BME280;6045;42.682;23.294;2023-04-16T05:29:59;94114.47;;;12.60;54.39
11971;BME280;6045;42.682;23.294;2023-04-16T05:32:26;94110.44;;;12.57;56.10
11971;BME280;6045;42.682;23.294;2023-04-16T05:34:53;94115.09;;;12.72;55.85
11971;BME280;6045;42.682;23.294;2023-04-16T05:37:19;94114.97;;;12.83;55.64
11971;BME280;6045;42.682;23.294;2023-04-16T05:39:47;94107.53;;;12.95;56.36
11971;BME280;6045;42.682;23.294;2023-04-16T05:42:14;94100.41;;;13.06;55.21
11971;BME280;6045;42.682;23.294;2023-04-16T05:44:41;94112.31;;;13.20;54.91
11971;BME280;6045;42.682;23.294;2023-04-16T05:47:08;94109.94;;;13.29;54.69
11971;BME280;6045;42.682;23.294;2023-04-16T05:49:35;94110.47;;;13.31;54.33
11971;BME280;6045;42.682;23.294;2023-04-16T05:52:02;94105.31;;;13.19;54.58
11971;BME280;6045;42.682;23.294;2023-04-16T05:54:28;94110.47;;;13.31;53.96
11971;BME280;6045;42.682;23.294;2023-04-16T05:56:57;94103.25;;;13.31;53.32
11971;BME280;6045;42.682;23.294;2023-04-16T05:59:23;94101.66;;;13.30;53.29
11971;BME280;6045;42.682;23.294;2023-04-16T06:01:50;94102.38;;;13.21;54.49
11971;BME280;6045;42.682;23.294;2023-04-16T06:04:17;94110.72;;;13.24;54.23
11971;BME280;6045;42.682;23.294;2023-04-16T06:06:44;94112.94;;;13.32;53.77
11971;BME280;6045;42.682;23.294;2023-04-16T06:09:10;94115.84;;;13.31;55.67
11971;BME280;6045;42.682;23.294;2023-04-16T06:11:37;94104.63;;;13.39;56.27
11971;BME280;6045;42.682;23.294;2023-04-16T06:14:05;94109.28;;;13.53;55.70
11971;BME280;6045;42.682;23.294;2023-04-16T06:16:32;94102.97;;;13.75;53.51
11971;BME280;6045;42.682;23.294;2023-04-16T06:18:58;94108.28;;;13.64;53.16
11971;BME280;6045;42.682;23.294;2023-04-16T06:21:25;94115.28;;;13.65;53.30
11971;BME280;6045;42.682;23.294;2023-04-16T06:23:53;94107.81;;;13.78;52.92
11971;BME280;6045;42.682;23.294;2023-04-16T06:26:20;94112.41;;;13.82;52.21
11971;BME280;6045;42.682;23.294;2023-04-16T06:28:47;94114.53;;;13.80;52.81
11971;BME280;6045;42.682;23.294;2023-04-16T06:31:15;94103.06;;;14.05;52.63
11971;BME280;6045;42.682;23.294;2023-04-16T06:33:41;94097.75;;;14.15;52.91
11971;BME280;6045;42.682;23.294;2023-04-16T06:36:08;94098.19;;;13.97;53.29
11971;BME280;6045;42.682;23.294;2023-04-16T06:38:35;94098.78;;;14.09;53.42
11971;BME280;6045;42.682;23.294;2023-04-16T06:41:02;94101.56;;;14.39;52.95
11971;BME280;6045;42.682;23.294;2023-04-16T06:43:29;94108.91;;;14.69;52.38
11971;BME280;6045;42.682;23.294;2023-04-16T06:45:57;94098.16;;;14.99;51.54
11971;BME280;6045;42.682;23.294;2023-04-16T06:48:26;94103.50;;;15.24;49.48
11971;BME280;6045;42.682;23.294;2023-04-16T06:50:53;94098.97;;;15.45;48.40
11971;BME280;6045;42.682;23.294;2023-04-16T06:53:20;94104.03;;;15.61;48.79
11971;BME280;6045;42.682;23.294;2023-04-16T06:55:46;94106.91;;;15.85;49.19
11971;BME280;6045;42.682;23.294;2023-04-16T06:58:13;94104.38;;;16.14;47.96
11971;BME280;6045;42.682;23.294;2023-04-16T07:00:40;94091.91;;;16.28;46.89
11971;BME280;6045;42.682;23.294;2023-04-16T07:03:07;94095.44;;;16.23;47.20
11971;BME280;6045;42.682;23.294;2023-04-16T07:05:35;94095.22;;;16.15;47.37
11971;BME280;6045;42.682;23.294;2023-04-16T07:08:02;94099.31;;;16.02;49.92
11971;BME280;6045;42.682;23.294;2023-04-16T07:10:29;94111.69;;;16.08;48.36
11971;BME280;6045;42.682;23.294;2023-04-16T07:12:55;94108.97;;;16.13;48.08
11971;BME280;6045;42.682;23.294;2023-04-16T07:15:23;94106.56;;;16.07;46.76
11971;BME280;6045;42.682;23.294;2023-04-16T07:17:50;94112.28;;;15.95;47.72
11971;BME280;6045;42.682;23.294;2023-04-16T07:20:16;94107.41;;;15.97;47.67
11971;BME280;6045;42.682;23.294;2023-04-16T07:22:45;94106.00;;;16.15;48.24
11971;BME280;6045;42.682;23.294;2023-04-16T07:25:11;94106.13;;;16.43;46.65
11971;BME280;6045;42.682;23.294;2023-04-16T07:27:38;94103.53;;;16.72;45.40
11971;BME280;6045;42.682;23.294;2023-04-16T07:30:06;94107.00;;;16.83;44.88
11971;BME280;6045;42.682;23.294;2023-04-16T07:32:33;94099.44;;;16.80;44.55
11971;BME280;6045;42.682;23.294;2023-04-16T07:35:00;94104.88;;;16.75;45.16
11971;BME280;6045;42.682;23.294;2023-04-16T07:37:28;94105.50;;;16.62;45.33
11971;BME280;6045;42.682;23.294;2023-04-16T07:39:56;94104.00;;;16.35;45.17
11971;BME280;6045;42.682;23.294;2023-04-16T07:42:25;94100.78;;;16.38;46.18
11971;BME280;6045;42.682;23.294;2023-04-16T07:44:52;94100.97;;;16.52;46.91
11971;BME280;6045;42.682;23.294;2023-04-16T07:47:19;94102.88;;;16.52;46.55
11971;BME280;6045;42.682;23.294;2023-04-16T07:49:47;94101.16;;;16.66;45.84
11971;BME280;6045;42.682;23.294;2023-04-16T07:52:14;94101.44;;;17.03;45.32
11971;BME280;6045;42.682;23.294;2023-04-16T07:54:40;94101.69;;;17.40;44.27
11971;BME280;6045;42.682;23.294;2023-04-16T07:57:10;94094.00;;;17.52;44.28
11971;BME280;6045;42.682;23.294;2023-04-16T07:59:37;94091.56;;;17.80;44.21
11971;BME280;6045;42.682;23.294;2023-04-16T08:02:04;94102.38;;;18.03;43.99
11971;BME280;6045;42.682;23.294;2023-04-16T08:04:33;94093.47;;;18.45;41.90
11971;BME280;6045;42.682;23.294;2023-04-16T08:06:59;94099.72;;;19.01;40.56
11971;BME280;6045;42.682;23.294;2023-04-16T08:09:26;94096.22;;;19.52;39.45
11971;BME280;6045;42.682;23.294;2023-04-16T08:11:53;94089.97;;;19.51;41.22
11971;BME280;6045;42.682;23.294;2023-04-16T08:14:21;94090.69;;;19.57;41.76
11971;BME280;6045;42.682;23.294;2023-04-16T08:16:48;94093.41;;;19.57;40.01
11971;BME280;6045;42.682;23.294;2023-04-16T08:19:15;94084.56;;;19.51;41.12
11971;BME280;6045;42.682;23.294;2023-04-16T08:21:42;94095.94;;;19.67;41.28
11971;BME280;6045;42.682;23.294;2023-04-16T08:24:09;94077.66;;;19.86;40.02
11971;BME280;6045;42.682;23.294;2023-04-16T08:26:36;94087.66;;;20.04;41.02
11971;BME280;6045;42.682;23.294;2023-04-16T08:29:03;94080.59;;;19.90;40.86
11971;BME280;6045;42.682;23.294;2023-04-16T08:31:31;94083.91;;;19.41;40.03
11971;BME280;6045;42.682;23.294;2023-04-16T08:33:59;94077.44;;;19.23;40.63
11971;BME280;6045;42.682;23.294;2023-04-16T08:36:26;94079.06;;;19.05;41.06
11971;BME280;6045;42.682;23.294;2023-04-16T08:38:53;94071.22;;;19.04;42.12
11971;BME280;6045;42.682;23.294;2023-04-16T08:41:21;94069.97;;;19.15;42.76
11971;BME280;6045;42.682;23.294;2023-04-16T08:43:49;94070.81;;;19.29;41.15
11971;BME280;6045;42.682;23.294;2023-04-16T08:46:22;94065.34;;;18.83;40.78
11971;BME280;6045;42.682;23.294;2023-04-16T08:48:53;94062.69;;;18.97;40.92
11971;BME280;6045;42.682;23.294;2023-04-16T08:51:21;94059.16;;;19.47;41.77
11971;BME280;6045;42.682;23.294;2023-04-16T08:53:51;94059.59;;;19.95;41.15
11971;BME280;6045;42.682;23.294;2023-04-16T08:56:19;94059.41;;;20.05;39.35
11971;BME280;6045;42.682;23.294;2023-04-16T08:58:47;94058.09;;;19.89;39.59
11971;BME280;6045;42.682;23.294;2023-04-16T09:01:15;94060.41;;;19.68;39.29
11971;BME280;6045;42.682;23.294;2023-04-16T09:03:45;94052.03;;;19.51;38.75
11971;BME280;6045;42.682;23.294;2023-04-16T09:06:14;94045.38;;;19.44;39.10
11971;BME280;6045;42.682;23.294;2023-04-16T09:08:42;94043.63;;;19.34;39.77
11971;BME280;6045;42.682;23.294;2023-04-16T09:11:10;94042.41;;;19.27;40.60
11971;BME280;6045;42.682;23.294;2023-04-16T09:13:37;94051.88;;;19.10;40.62
11971;BME280;6045;42.682;23.294;2023-04-16T09:16:06;94047.19;;;18.84;40.21
11971;BME280;6045;42.682;23.294;2023-04-16T09:18:33;94053.38;;;19.03;40.47
11971;BME280;6045;42.682;23.294;2023-04-16T09:20:59;94053.66;;;19.34;41.15
11971;BME280;6045;42.682;23.294;2023-04-16T09:23:28;94052.13;;;19.46;40.86
11971;BME280;6045;42.682;23.294;2023-04-16T09:25:56;94050.22;;;19.60;40.66
11971;BME280;6045;42.682;23.294;2023-04-16T09:28:40;94048.16;;;19.85;39.33
11971;BME280;6045;42.682;23.294;2023-04-16T09:33:35;94044.41;;;20.49;38.42
11971;BME280;6045;42.682;23.294;2023-04-16T09:36:02;94053.44;;;20.93;37.51
11971;BME280;6045;42.682;23.294;2023-04-16T09:41:25;94045.50;;;21.19;36.26
11971;BME280;6045;42.682;23.294;2023-04-16T09:43:53;94047.06;;;21.64;34.62
11971;BME280;6045;42.682;23.294;2023-04-16T09:46:24;94039.66;;;21.65;35.00
11971;BME280;6045;42.682;23.294;2023-04-16T09:48:55;94041.25;;;21.88;36.97
11971;BME280;6045;42.682;23.294;2023-04-16T09:51:21;94032.44;;;22.39;36.13
11971;BME280;6045;42.682;23.294;2023-04-16T09:53:51;94039.41;;;23.48;32.43
11971;BME280;6045;42.682;23.294;2023-04-16T09:56:23;94034.28;;;23.55;31.81
11971;BME280;6045;42.682;23.294;2023-04-16T09:58:56;94038.19;;;22.20;32.66
11971;BME280;6045;42.682;23.294;2023-04-16T10:01:23;94029.78;;;21.38;35.23
11971;BME280;6045;42.682;23.294;2023-04-16T10:03:52;94027.53;;;20.74;35.47
11971;BME280;6045;42.682;23.294;2023-04-16T10:06:22;94020.81;;;19.81;37.04
11971;BME280;6045;42.682;23.294;2023-04-16T10:08:52;94018.81;;;19.59;38.23
11971;BME280;6045;42.682;23.294;2023-04-16T10:11:21;94017.88;;;19.50;39.09
11971;BME280;6045;42.682;23.294;2023-04-16T10:13:50;94023.00;;;19.20;39.38
11971;BME280;6045;42.682;23.294;2023-04-16T10:16:17;94021.41;;;19.19;39.92
11971;BME280;6045;42.682;23.294;2023-04-16T10:18:45;94011.56;;;19.09;40.12
11971;BME280;6045;42.682;23.294;2023-04-16T10:21:12;94014.31;;;18.90;40.20
11971;BME280;6045;42.682;23.294;2023-04-16T10:23:41;94006.25;;;19.18;40.49
11971;BME280;6045;42.682;23.294;2023-04-16T10:26:09;94005.25;;;19.27;39.86
11971;BME280;6045;42.682;23.294;2023-04-16T10:28:36;94006.50;;;19.35;40.25
11971;BME280;6045;42.682;23.294;2023-04-16T10:31:06;94006.66;;;19.57;39.36
11971;BME280;6045;42.682;23.294;2023-04-16T10:33:35;94002.31;;;19.69;38.90
11971;BME280;6045;42.682;23.294;2023-04-16T10:36:09;94000.13;;;19.85;39.46
11971;BME280;6045;42.682;23.294;2023-04-16T10:38:40;93992.69;;;20.04;39.53
11971;BME280;6045;42.682;23.294;2023-04-16T10:41:10;93993.81;;;20.53;38.30
11971;BME280;6045;42.682;23.294;2023-04-16T10:43:42;93995.50;;;21.06;36.94
11971;BME280;6045;42.682;23.294;2023-04-16T10:46:21;93992.72;;;21.51;35.97
11971;BME280;6045;42.682;23.294;2023-04-16T10:48:49;93995.19;;;21.61;35.53
11971;BME280;6045;42.682;23.294;2023-04-16T10:51:26;93991.28;;;21.53;35.59
11971;BME280;6045;42.682;23.294;2023-04-16T10:56:24;93993.75;;;21.63;35.64
11971;BME280;6045;42.682;23.294;2023-04-16T10:58:52;93982.94;;;21.80;36.16
11971;BME280;6045;42.682;23.294;2023-04-16T11:01:28;93981.63;;;22.09;34.53
11971;BME280;6045;42.682;23.294;2023-04-16T11:03:57;93980.34;;;22.06;35.23
11971;BME280;6045;42.682;23.294;2023-04-16T11:06:24;93977.63;;;22.23;34.36
11971;BME280;6045;42.682;23.294;2023-04-16T11:08:52;93970.16;;;22.46;33.50
11971;BME280;6045;42.682;23.294;2023-04-16T11:11:19;93973.66;;;23.06;33.88
11971;BME280;6045;42.682;23.294;2023-04-16T11:13:46;93973.84;;;24.03;31.45
11971;BME280;6045;42.682;23.294;2023-04-16T11:16:14;93970.63;;;24.59;30.33
11971;BME280;6045;42.682;23.294;2023-04-16T11:18:44;93965.00;;;24.85;30.65
11971;BME280;6045;42.682;23.294;2023-04-16T11:21:12;93963.88;;;24.15;30.40
11971;BME280;6045;42.682;23.294;2023-04-16T11:23:46;93956.16;;;23.25;33.04
11971;BME280;6045;42.682;23.294;2023-04-16T11:26:23;93946.44;;;22.55;33.11
11971;BME280;6045;42.682;23.294;2023-04-16T11:28:50;93948.63;;;22.02;34.57
11971;BME280;6045;42.682;23.294;2023-04-16T11:31:17;93951.69;;;21.69;35.09
11971;BME280;6045;42.682;23.294;2023-04-16T11:33:45;93948.00;;;21.26;34.79
11971;BME280;6045;42.682;23.294;2023-04-16T11:36:12;93952.69;;;20.90;35.10
11971;BME280;6045;42.682;23.294;2023-04-16T11:38:39;93946.41;;;20.59;37.12
11971;BME280;6045;42.682;23.294;2023-04-16T11:41:07;93942.81;;;20.50;37.08
11971;BME280;6045;42.682;23.294;2023-04-16T11:43:35;93938.84;;;20.33;36.70
11971;BME280;6045;42.682;23.294;2023-04-16T11:46:02;93934.03;;;20.30;37.00
11971;BME280;6045;42.682;23.294;2023-04-16T11:48:47;93928.44;;;20.13;37.81
11971;BME280;6045;42.682;23.294;2023-04-16T11:51:14;93932.22;;;19.90;38.19
11971;BME280;6045;42.682;23.294;2023-04-16T11:53:45;93934.22;;;19.85;38.24
11971;BME280;6045;42.682;23.294;2023-04-16T11:56:13;93924.75;;;19.96;38.67
11971;BME280;6045;42.682;23.294;2023-04-16T11:58:40;93923.00;;;20.13;38.05
11971;BME280;6045;42.682;23.294;2023-04-16T12:01:07;93923.31;;;20.25;37.79
11971;BME280;6045;42.682;23.294;2023-04-16T12:03:39;93921.88;;;20.14;37.76
11971;BME280;6045;42.682;23.294;2023-04-16T12:06:09;93914.06;;;20.26;37.75
11971;BME280;6045;42.682;23.294;2023-04-16T12:08:36;93905.00;;;20.17;37.91
11971;BME280;6045;42.682;23.294;2023-04-16T12:11:03;93901.72;;;20.42;38.58
11971;BME280;6045;42.682;23.294;2023-04-16T12:13:30;93895.53;;;20.73;37.54
11971;BME280;6045;42.682;23.294;2023-04-16T12:16:15;93887.94;;;21.05;37.97
11971;BME280;6045;42.682;23.294;2023-04-16T12:18:58;93879.59;;;21.41;37.86
11971;BME280;6045;42.682;23.294;2023-04-16T12:21:35;93879.03;;;21.61;37.08
11971;BME280;6045;42.682;23.294;2023-04-16T12:24:02;93884.63;;;21.65;36.73
11971;BME280;6045;42.682;23.294;2023-04-16T12:26:35;93888.00;;;21.70;35.42
11971;BME280;6045;42.682;23.294;2023-04-16T12:29:13;93893.94;;;21.81;35.00
11971;BME280;6045;42.682;23.294;2023-04-16T12:31:40;93882.56;;;21.79;34.07
11971;BME280;6045;42.682;23.294;2023-04-16T12:34:07;93874.69;;;21.52;34.72
11971;BME280;6045;42.682;23.294;2023-04-16T12:36:36;93879.25;;;21.03;35.95
11971;BME280;6045;42.682;23.294;2023-04-16T12:39:02;93875.41;;;20.74;36.62
11971;BME280;6045;42.682;23.294;2023-04-16T12:41:29;93869.31;;;20.68;37.68
11971;BME280;6045;42.682;23.294;2023-04-16T12:44:03;93873.97;;;20.68;38.23
11971;BME280;6045;42.682;23.294;2023-04-16T12:46:31;93869.47;;;20.41;38.77
11971;BME280;6045;42.682;23.294;2023-04-16T12:48:57;93873.31;;;20.04;38.90
11971;BME280;6045;42.682;23.294;2023-04-16T12:51:24;93872.97;;;19.70;39.37
11971;BME280;6045;42.682;23.294;2023-04-16T12:53:53;93871.09;;;19.43;39.93
11971;BME280;6045;42.682;23.294;2023-04-16T12:56:20;93874.69;;;19.11;40.21
11971;BME280;6045;42.682;23.294;2023-04-16T12:58:47;93876.19;;;18.90;41.12
11971;BME280;6045;42.682;23.294;2023-04-16T13:01:16;93870.94;;;18.80;42.26
11971;BME280;6045;42.682;23.294;2023-04-16T13:03:43;93872.16;;;18.74;41.57
11971;BME280;6045;42.682;23.294;2023-04-16T13:06:11;93866.00;;;18.55;43.11
11971;BME280;6045;42.682;23.294;2023-04-16T13:08:38;93862.50;;;18.36;44.38
11971;BME280;6045;42.682;23.294;2023-04-16T13:11:06;93860.34;;;18.19;45.76